createdAt,value
2023-03-04T00:01:57.258Z,35.90
2023-03-04T00:04:23.767Z,30.65
2023-03-04T00:06:50.215Z,35.95
2023-03-04T00:09:16.710Z,36.58
2023-03-04T00:11:43.174Z,32.75
2023-03-04T00:14:09.595Z,30.67
2023-03-04T00:16:36.026Z,36.38
2023-03-04T00:19:02.473Z,34.55
2023-03-04T00:21:28.959Z,33.72
2023-03-04T00:23:55.446Z,34.78
2023-03-04T00:26:21.905Z,32.58
2023-03-04T00:28:48.412Z,33.63
2023-03-04T00:31:14.919Z,33.15
2023-03-04T00:33:43.411Z,42.65
2023-03-04T00:36:11.116Z,42.25
2023-03-04T00:38:37.610Z,42.60
2023-03-04T00:41:04.199Z,36.22
2023-03-04T00:43:32.085Z,35.78
2023-03-04T00:45:58.586Z,37.40
2023-03-04T00:48:25.131Z,35.15
2023-03-04T00:50:53.856Z,31.52
2023-03-04T00:53:21.369Z,37.65
2023-03-04T00:55:47.807Z,32.85
2023-03-04T00:58:14.229Z,33.88
2023-03-04T01:00:40.688Z,34.05
2023-03-04T01:03:07.130Z,32.83
2023-03-04T01:05:35.859Z,33.80
2023-03-04T01:08:02.924Z,35.03
2023-03-04T01:10:29.636Z,34.53
2023-03-04T01:12:56.078Z,35.35
2023-03-04T01:15:22.753Z,32.15
2023-03-04T01:17:49.242Z,32.20
2023-03-04T01:20:16.658Z,33.97
2023-03-04T01:22:43.133Z,39.38
2023-03-04T01:25:09.912Z,32.50
2023-03-04T01:27:36.356Z,34.88
2023-03-04T01:30:03.907Z,36.15
2023-03-04T01:32:30.431Z,30.02
2023-03-04T01:34:56.890Z,32.60
2023-03-04T01:37:23.338Z,35.78
2023-03-04T01:39:49.731Z,32.70
2023-03-04T01:42:22.098Z,31.38
2023-03-04T01:44:51.118Z,35.83
2023-03-04T01:47:19.115Z,30.60
2023-03-04T01:49:50.950Z,34.65
2023-03-04T01:52:17.422Z,34.60
2023-03-04T01:54:43.841Z,27.58
2023-03-04T01:57:22.580Z,36.47
2023-03-04T02:00:19.694Z,31.77
2023-03-04T02:02:48.142Z,37.10
2023-03-04T02:05:15.049Z,28.77
2023-03-04T02:07:42.357Z,35.15
2023-03-04T02:10:10.253Z,32.17
2023-03-04T02:12:36.754Z,34.63
2023-03-04T02:15:04.179Z,36.65
2023-03-04T02:17:32.455Z,33.53
2023-03-04T02:20:24.006Z,37.58
2023-03-04T02:23:43.377Z,31.52
2023-03-04T02:26:24.441Z,26.90
2023-03-04T02:28:52.747Z,29.67
2023-03-04T02:31:30.120Z,27.30
2023-03-04T02:33:59.632Z,31.80
2023-03-04T02:36:26.564Z,35.00
2023-03-04T02:38:54.665Z,31.23
2023-03-04T02:41:25.004Z,38.75
2023-03-04T02:43:53.638Z,42.20
2023-03-04T02:46:20.407Z,35.60
2023-03-04T02:48:46.920Z,35.13
2023-03-04T02:51:13.342Z,37.53
2023-03-04T02:53:39.780Z,33.00
2023-03-04T02:56:06.556Z,34.63
2023-03-04T02:58:33.169Z,37.95
2023-03-04T03:00:59.964Z,30.65
2023-03-04T03:03:26.480Z,30.83
2023-03-04T03:05:54.324Z,37.22
2023-03-04T03:08:20.863Z,28.73
2023-03-04T03:10:47.295Z,37.00
2023-03-04T03:13:13.734Z,35.78
2023-03-04T03:15:42.296Z,30.67
2023-03-04T03:18:12.040Z,31.65
2023-03-04T03:20:38.503Z,32.80
2023-03-04T03:23:05.337Z,31.25
2023-03-04T03:25:31.778Z,37.40
2023-03-04T03:27:58.202Z,31.35
2023-03-04T03:30:24.652Z,28.13
2023-03-04T03:32:51.286Z,29.05
2023-03-04T03:35:18.279Z,32.80
2023-03-04T03:37:44.816Z,28.25
2023-03-04T03:40:12.141Z,26.58
2023-03-04T03:42:38.571Z,27.30
2023-03-04T03:45:05.463Z,37.25
2023-03-04T03:47:32.319Z,30.40
2023-03-04T03:49:58.739Z,32.75
2023-03-04T03:52:25.284Z,37.25
2023-03-04T03:54:51.743Z,31.17
2023-03-04T03:57:18.170Z,30.35
2023-03-04T03:59:44.622Z,39.63
2023-03-04T04:02:11.142Z,32.55
2023-03-04T04:04:37.611Z,35.53
2023-03-04T04:07:04.142Z,31.38
2023-03-04T04:09:30.577Z,35.88
2023-03-04T04:11:57.000Z,34.72
2023-03-04T04:14:23.484Z,36.40
2023-03-04T04:16:49.954Z,32.80
2023-03-04T04:19:20.403Z,33.30
2023-03-04T04:21:47.369Z,32.85
2023-03-04T04:24:13.883Z,33.50
2023-03-04T04:26:40.854Z,33.92
2023-03-04T04:29:07.455Z,34.10
2023-03-04T04:31:33.972Z,31.73
2023-03-04T04:34:00.703Z,33.20
2023-03-04T04:36:27.731Z,38.83
2023-03-04T04:38:54.169Z,34.20
2023-03-04T04:41:23.717Z,28.98
2023-03-04T04:43:50.540Z,33.80
2023-03-04T04:46:17.555Z,31.67
2023-03-04T04:48:44.570Z,34.55
2023-03-04T04:51:12.219Z,32.90
2023-03-04T04:53:38.878Z,32.55
2023-03-04T04:56:16.907Z,37.20
2023-03-04T04:58:43.727Z,36.53
2023-03-04T05:01:10.629Z,36.53
2023-03-04T05:03:38.094Z,39.88
2023-03-04T05:06:06.899Z,69.63
2023-03-04T05:08:34.070Z,53.50
2023-03-04T05:11:01.175Z,54.63
2023-03-04T05:13:28.123Z,46.63
2023-03-04T05:16:22.300Z,41.67
2023-03-04T05:18:48.796Z,79.35
2023-03-04T05:21:15.407Z,66.43
2023-03-04T05:23:43.403Z,61.33
2023-03-04T05:26:13.204Z,65.20
2023-03-04T05:28:39.616Z,63.67
2023-03-04T05:31:06.268Z,80.28
2023-03-04T05:33:33.082Z,55.55
2023-03-04T05:35:59.784Z,52.35
2023-03-04T05:38:26.899Z,42.60
2023-03-04T05:40:59.138Z,37.55
2023-03-04T05:43:27.880Z,26.77
2023-03-04T05:45:55.482Z,26.08
2023-03-04T05:48:22.082Z,26.48
2023-03-04T05:50:54.157Z,27.33
2023-03-04T05:53:20.608Z,26.83
2023-03-04T05:55:47.761Z,29.60
2023-03-04T05:58:14.742Z,26.80
2023-03-04T06:00:41.286Z,30.15
2023-03-04T06:03:13.627Z,23.90
2023-03-04T06:05:40.064Z,22.55
2023-03-04T06:08:06.622Z,26.75
2023-03-04T06:10:38.238Z,29.73
2023-03-04T06:13:04.813Z,22.77
2023-03-04T06:15:32.208Z,22.40
2023-03-04T06:17:58.688Z,26.67
2023-03-04T06:20:25.150Z,22.10
2023-03-04T06:22:51.637Z,29.40
2023-03-04T06:25:18.137Z,35.00
2023-03-04T06:27:44.577Z,35.53
2023-03-04T06:30:11.648Z,37.70
2023-03-04T06:32:38.113Z,30.13
2023-03-04T06:35:05.157Z,29.35
2023-03-04T06:37:31.658Z,26.73
2023-03-04T06:39:58.059Z,32.22
2023-03-04T06:42:24.622Z,28.10
2023-03-04T06:44:51.093Z,24.52
2023-03-04T06:47:18.829Z,28.00
2023-03-04T06:49:45.360Z,25.20
2023-03-04T06:52:12.944Z,27.60
2023-03-04T06:54:40.458Z,31.83
2023-03-04T06:57:07.626Z,31.52
2023-03-04T06:59:34.171Z,27.00
2023-03-04T07:02:00.704Z,29.17
2023-03-04T07:04:27.304Z,32.50
2023-03-04T07:06:54.102Z,29.27
2023-03-04T07:09:20.759Z,29.75
2023-03-04T07:11:47.166Z,27.92
2023-03-04T07:14:13.984Z,26.42
2023-03-04T07:16:40.832Z,27.83
2023-03-04T07:19:07.464Z,32.92
2023-03-04T07:21:34.069Z,30.92
2023-03-04T07:24:00.918Z,25.70
2023-03-04T07:26:27.492Z,29.95
2023-03-04T07:28:54.625Z,31.83
2023-03-04T07:31:25.008Z,29.55
2023-03-04T07:33:52.233Z,31.00
2023-03-04T07:36:19.885Z,29.25
2023-03-04T07:38:48.422Z,32.17
2023-03-04T07:41:15.633Z,32.95
2023-03-04T07:43:42.742Z,37.80
2023-03-04T07:46:10.303Z,42.72
2023-03-04T07:48:37.341Z,41.53
2023-03-04T07:51:12.568Z,39.85
2023-03-04T07:53:41.417Z,42.65
2023-03-04T07:56:11.088Z,59.42
2023-03-04T07:58:37.710Z,41.00
2023-03-04T08:01:19.358Z,43.90
2023-03-04T08:06:15.006Z,42.75
2023-03-04T08:08:43.128Z,47.70
2023-03-04T08:11:12.918Z,50.35
2023-03-04T08:13:39.860Z,41.90
2023-03-04T08:16:07.445Z,47.42
2023-03-04T08:18:34.243Z,50.40
2023-03-04T08:21:00.852Z,50.55
2023-03-04T08:23:27.455Z,50.58
2023-03-04T08:25:54.437Z,50.70
2023-03-04T08:28:20.974Z,52.45
2023-03-04T08:30:53.764Z,71.28
2023-03-04T08:33:20.503Z,52.22
2023-03-04T08:35:47.305Z,56.83
2023-03-04T08:38:13.940Z,57.45
2023-03-04T08:40:40.429Z,63.25
2023-03-04T08:43:06.930Z,60.63
2023-03-04T08:45:33.413Z,57.80
2023-03-04T08:47:59.933Z,56.28
2023-03-04T08:50:27.527Z,62.30
2023-03-04T08:52:54.212Z,61.05
2023-03-04T08:55:20.777Z,63.75
2023-03-04T08:57:47.282Z,61.72
2023-03-04T09:00:14.162Z,60.03
2023-03-04T09:02:40.620Z,60.38
2023-03-04T09:05:07.875Z,64.88
2023-03-04T09:07:34.343Z,61.63
2023-03-04T09:10:00.847Z,56.80
2023-03-04T09:12:27.448Z,59.42
2023-03-04T09:15:08.653Z,64.53
2023-03-04T09:17:37.369Z,57.00
2023-03-04T09:20:04.786Z,59.67
2023-03-04T09:22:31.430Z,52.90
2023-03-04T09:24:57.856Z,61.15
2023-03-04T09:27:24.433Z,57.90
2023-03-04T09:29:50.852Z,51.55
2023-03-04T09:32:17.492Z,51.50
2023-03-04T09:34:43.953Z,54.30
2023-03-04T09:37:10.455Z,54.40
2023-03-04T09:39:37.091Z,59.45
2023-03-04T09:42:06.801Z,53.95
2023-03-04T09:44:37.751Z,54.60
2023-03-04T09:47:11.591Z,62.13
2023-03-04T09:49:42.159Z,53.15
2023-03-04T09:52:20.897Z,51.17
2023-03-04T09:55:06.143Z,49.95
2023-03-04T09:57:57.521Z,52.53
2023-03-04T10:00:24.113Z,48.17
2023-03-04T10:02:59.947Z,48.95
2023-03-04T10:05:30.024Z,48.50
2023-03-04T10:07:59.555Z,45.13
2023-03-04T10:10:31.958Z,42.40
2023-03-04T10:13:00.764Z,49.15
2023-03-04T10:15:48.099Z,37.22
2023-03-04T10:18:22.006Z,41.55
2023-03-04T10:21:00.589Z,30.48
2023-03-04T10:23:29.782Z,32.10
2023-03-04T10:25:56.587Z,29.88
2023-03-04T10:28:29.273Z,36.53
2023-03-04T10:31:14.269Z,41.58
2023-03-04T10:33:41.050Z,35.90
2023-03-04T10:36:19.620Z,35.33
2023-03-04T10:38:46.088Z,38.75
2023-03-04T10:41:26.015Z,35.75
2023-03-04T10:43:58.490Z,38.63
2023-03-04T10:46:25.460Z,35.75
2023-03-04T10:48:53.392Z,37.15
2023-03-04T10:51:23.206Z,43.55
2023-03-04T10:53:52.483Z,34.25
2023-03-04T10:56:31.941Z,33.45
2023-03-04T10:59:32.280Z,35.97
2023-03-04T11:02:00.486Z,35.55
2023-03-04T11:04:32.383Z,29.75
2023-03-04T11:06:58.818Z,32.63
2023-03-04T11:09:28.320Z,38.40
2023-03-04T11:11:58.995Z,44.33
2023-03-04T11:14:34.836Z,39.80
2023-03-04T11:17:15.688Z,37.53
2023-03-04T11:19:45.634Z,35.70
2023-03-04T11:22:16.409Z,37.63
2023-03-04T11:24:43.976Z,34.20
2023-03-04T11:27:18.699Z,33.30
2023-03-04T11:30:13.494Z,32.33
2023-03-04T11:32:43.615Z,31.77
2023-03-04T11:35:21.644Z,36.85
2023-03-04T11:37:59.528Z,32.72
2023-03-04T11:40:44.594Z,35.10
2023-03-04T11:43:18.838Z,32.88
2023-03-04T11:45:54.484Z,31.23
2023-03-04T11:48:48.769Z,33.83
2023-03-04T11:51:45.639Z,29.55
2023-03-04T11:54:35.875Z,35.28
2023-03-04T11:57:38.457Z,30.63
2023-03-04T12:00:20.158Z,34.00
2023-03-04T12:03:13.109Z,29.38
2023-03-04T12:05:51.562Z,29.33
2023-03-04T12:08:28.157Z,39.33
2023-03-04T12:11:08.301Z,35.30
2023-03-04T12:13:59.984Z,32.10
2023-03-04T12:17:01.798Z,33.42
2023-03-04T12:19:35.102Z,35.03
2023-03-04T12:22:28.137Z,36.95
2023-03-04T12:25:12.837Z,30.27
2023-03-04T12:27:48.556Z,31.77
2023-03-04T12:30:52.842Z,29.38
2023-03-04T12:33:39.120Z,31.08
2023-03-04T12:36:26.773Z,28.23
2023-03-04T12:39:19.546Z,27.60
2023-03-04T12:42:23.757Z,28.23
2023-03-04T12:45:16.633Z,23.23
2023-03-04T12:48:21.554Z,26.85
2023-03-04T12:51:11.893Z,25.88
2023-03-04T12:53:59.612Z,26.67
2023-03-04T12:56:44.651Z,26.58
2023-03-04T12:59:18.260Z,24.42
2023-03-04T13:02:09.170Z,25.27
2023-03-04T13:05:16.697Z,28.77
2023-03-04T13:08:08.505Z,26.55
2023-03-04T13:10:35.891Z,25.63
2023-03-04T13:13:03.668Z,32.55
2023-03-04T13:15:35.923Z,31.85
2023-03-04T13:18:24.300Z,31.15
2023-03-04T13:21:10.203Z,29.48
2023-03-04T13:23:36.839Z,23.52
2023-03-04T13:26:03.438Z,23.55
2023-03-04T13:28:32.466Z,20.40
2023-03-04T13:30:59.537Z,27.75
2023-03-04T13:33:25.983Z,20.95
2023-03-04T13:36:09.097Z,21.00
2023-03-04T13:38:38.319Z,20.58
2023-03-04T13:41:20.214Z,24.50
2023-03-04T13:43:47.655Z,22.80
2023-03-04T13:46:20.354Z,21.77
2023-03-04T13:48:49.642Z,22.70
2023-03-04T13:51:31.587Z,21.15
2023-03-04T13:54:00.901Z,25.17
2023-03-04T13:56:29.264Z,24.42
2023-03-04T13:59:20.028Z,20.75
2023-03-04T14:01:46.412Z,21.23
2023-03-04T14:04:37.604Z,19.15
2023-03-04T14:07:18.334Z,22.80
2023-03-04T14:10:07.712Z,23.48
2023-03-04T14:12:48.945Z,23.30
2023-03-04T14:15:24.618Z,20.27
2023-03-04T14:18:01.082Z,21.45
2023-03-04T14:22:57.052Z,24.58
2023-03-04T14:25:29.370Z,19.58
2023-03-04T14:28:22.033Z,20.13
2023-03-04T14:30:53.655Z,25.58
2023-03-04T14:33:28.921Z,22.80
2023-03-04T14:35:59.290Z,19.50
2023-03-04T14:38:30.968Z,21.23
2023-03-04T14:41:34.283Z,22.58
2023-03-04T14:44:21.636Z,19.60
2023-03-04T14:47:06.102Z,24.98
2023-03-04T14:49:36.387Z,26.50
2023-03-04T14:52:03.233Z,17.75
2023-03-04T14:54:34.038Z,22.55
2023-03-04T14:57:21.197Z,24.85
2023-03-04T14:59:47.732Z,22.58
2023-03-04T15:02:31.108Z,15.52
2023-03-04T15:05:16.485Z,22.10
2023-03-04T15:07:49.625Z,20.88
2023-03-04T15:10:22.558Z,22.15
2023-03-04T15:12:55.166Z,22.45
2023-03-04T15:15:42.865Z,19.10
2023-03-04T15:18:23.706Z,20.92
2023-03-04T15:21:05.564Z,21.58
2023-03-04T15:23:33.579Z,22.60
2023-03-04T15:26:03.152Z,23.05
2023-03-04T15:28:37.714Z,20.75
2023-03-04T15:31:05.585Z,26.92
2023-03-04T15:33:32.402Z,24.60
2023-03-04T15:36:01.691Z,22.10
2023-03-04T15:38:29.322Z,26.42
2023-03-04T15:40:58.359Z,20.92
2023-03-04T15:43:25.342Z,18.42
2023-03-04T15:45:53.014Z,26.48
2023-03-04T15:48:19.872Z,19.58
2023-03-04T15:51:01.621Z,19.35
2023-03-04T15:53:39.569Z,19.35
2023-03-04T15:56:11.855Z,25.77
2023-03-04T15:58:39.433Z,20.83
2023-03-04T16:01:06.472Z,24.05
2023-03-04T16:03:33.155Z,20.50
2023-03-04T16:06:00.109Z,19.65
2023-03-04T16:08:26.703Z,21.05
2023-03-04T16:10:54.703Z,18.73
2023-03-04T16:13:23.393Z,25.10
2023-03-04T16:15:50.254Z,22.35
2023-03-04T16:18:17.289Z,21.25
2023-03-04T16:20:47.118Z,25.92
2023-03-04T16:23:17.180Z,26.98
2023-03-04T16:25:45.566Z,21.48
2023-03-04T16:28:12.611Z,21.58
2023-03-04T16:30:39.606Z,23.42
2023-03-04T16:33:06.145Z,19.75
2023-03-04T16:35:35.754Z,26.55
2023-03-04T16:38:02.402Z,23.02
2023-03-04T16:40:30.962Z,22.02
2023-03-04T16:42:57.538Z,21.40
2023-03-04T16:45:30.306Z,24.10
2023-03-04T16:47:56.893Z,22.38
2023-03-04T16:50:27.419Z,29.65
2023-03-04T16:52:55.745Z,20.95
2023-03-04T16:55:27.494Z,24.67
2023-03-04T16:57:55.828Z,18.73
2023-03-04T17:00:26.969Z,20.65
2023-03-04T17:02:57.211Z,21.58
2023-03-04T17:05:26.259Z,33.78
2023-03-04T17:07:52.832Z,23.48
2023-03-04T17:10:19.491Z,20.23
2023-03-04T17:12:45.971Z,23.17
2023-03-04T17:15:14.359Z,32.72
2023-03-04T17:17:41.932Z,26.83
2023-03-04T17:20:10.988Z,28.88
2023-03-04T17:22:37.605Z,26.17
2023-03-04T17:25:04.688Z,24.73
2023-03-04T17:27:31.491Z,24.52
2023-03-04T17:29:57.938Z,23.40
2023-03-04T17:32:26.048Z,27.02
2023-03-04T17:34:55.663Z,25.58
2023-03-04T17:37:22.190Z,31.48
2023-03-04T17:39:48.623Z,26.75
2023-03-04T17:42:15.142Z,25.00
2023-03-04T17:44:42.138Z,27.55
2023-03-04T17:47:08.769Z,25.48
2023-03-04T17:49:35.236Z,31.75
2023-03-04T17:52:04.041Z,28.50
2023-03-04T17:54:30.828Z,29.80
2023-03-04T17:56:57.465Z,32.08
2023-03-04T17:59:24.256Z,34.97
2023-03-04T18:01:53.972Z,38.45
2023-03-04T18:04:20.971Z,34.65
2023-03-04T18:06:47.707Z,35.35
2023-03-04T18:09:14.116Z,35.90
2023-03-04T18:11:41.754Z,28.00
2023-03-04T18:14:08.915Z,34.08
2023-03-04T18:16:35.576Z,36.80
2023-03-04T18:19:02.663Z,28.67
2023-03-04T18:21:30.052Z,39.17
2023-03-04T18:23:57.022Z,34.33
2023-03-04T18:26:24.205Z,35.10
2023-03-04T18:28:51.943Z,42.13
2023-03-04T18:31:24.281Z,34.83
2023-03-04T18:33:51.815Z,33.42
2023-03-04T18:36:18.355Z,37.25
2023-03-04T18:38:44.807Z,31.15
2023-03-04T18:41:14.102Z,32.55
2023-03-04T18:43:40.723Z,33.40
2023-03-04T18:46:22.362Z,39.08
2023-03-04T18:48:54.595Z,45.83
2023-03-04T18:51:21.221Z,39.85
2023-03-04T18:53:47.841Z,55.83
2023-03-04T18:56:20.483Z,50.35
2023-03-04T18:58:49.019Z,60.35
2023-03-04T19:01:18.923Z,58.33
2023-03-04T19:03:46.012Z,54.35
2023-03-04T19:06:12.776Z,59.40
2023-03-04T19:08:39.227Z,66.60
2023-03-04T19:11:08.482Z,58.20
2023-03-04T19:13:35.014Z,58.67
2023-03-04T19:16:01.534Z,72.20
2023-03-04T19:18:29.300Z,58.20
2023-03-04T19:20:58.484Z,62.70
2023-03-04T19:23:24.898Z,51.05
2023-03-04T19:25:51.322Z,70.20
2023-03-04T19:28:17.780Z,67.30
2023-03-04T19:30:44.222Z,78.18
2023-03-04T19:33:10.721Z,77.30
2023-03-04T19:35:41.898Z,70.47
2023-03-04T19:38:08.968Z,65.13
2023-03-04T19:40:40.299Z,66.82
2023-03-04T19:45:34.339Z,62.72
2023-03-04T19:48:02.839Z,62.47
2023-03-04T19:50:29.903Z,102.97
2023-03-04T19:52:56.446Z,69.47
2023-03-04T19:55:23.013Z,80.88
2023-03-04T19:57:49.526Z,66.75
2023-03-04T20:00:16.836Z,63.75
2023-03-04T20:02:45.549Z,63.08
2023-03-04T20:05:13.515Z,48.20
2023-03-04T20:07:40.431Z,51.90
2023-03-04T20:10:07.731Z,55.65
2023-03-04T20:12:36.209Z,46.00
2023-03-04T20:15:05.046Z,50.45
2023-03-04T20:17:31.580Z,43.85
2023-03-04T20:19:58.126Z,42.22
2023-03-04T20:22:24.662Z,41.00
2023-03-04T20:24:51.365Z,40.92
2023-03-04T20:27:18.092Z,42.85
2023-03-04T20:29:45.329Z,40.20
2023-03-04T20:32:12.189Z,44.88
2023-03-04T20:34:38.789Z,50.47
2023-03-04T20:37:05.284Z,55.10
2023-03-04T20:39:31.882Z,48.25
2023-03-04T20:41:59.271Z,45.17
2023-03-04T20:44:26.736Z,37.90
2023-03-04T20:46:53.435Z,45.70
2023-03-04T20:49:24.210Z,50.05
2023-03-04T20:51:53.475Z,46.22
2023-03-04T20:54:20.622Z,57.33
2023-03-04T20:56:47.615Z,46.17
2023-03-04T20:59:14.369Z,50.50
2023-03-04T21:01:43.744Z,53.08
2023-03-04T21:04:10.574Z,43.67
2023-03-04T21:06:38.786Z,54.40
2023-03-04T21:09:09.131Z,48.05
2023-03-04T21:11:40.379Z,53.55
2023-03-04T21:14:16.243Z,48.80
2023-03-04T21:16:43.133Z,47.75
2023-03-04T21:19:16.790Z,44.95
2023-03-04T21:21:43.901Z,42.75
2023-03-04T21:24:14.328Z,36.05
2023-03-04T21:26:43.069Z,51.65
2023-03-04T21:29:09.646Z,43.75
2023-03-04T21:31:40.081Z,46.42
2023-03-04T21:34:14.708Z,47.63
2023-03-04T21:36:41.270Z,54.55
2023-03-04T21:39:08.160Z,49.90
2023-03-04T21:41:34.707Z,48.05
2023-03-04T21:44:01.400Z,56.83
2023-03-04T21:46:27.896Z,54.97
2023-03-04T21:48:54.426Z,59.20
2023-03-04T21:51:20.882Z,50.72
2023-03-04T21:53:47.283Z,46.95
2023-03-04T21:56:13.813Z,46.13
2023-03-04T21:58:42.854Z,41.92
2023-03-04T22:01:18.635Z,38.85
2023-03-04T22:03:45.912Z,40.15
2023-03-04T22:06:13.323Z,37.78
2023-03-04T22:08:39.909Z,43.35
2023-03-04T22:11:08.667Z,39.95
2023-03-04T22:13:35.474Z,40.58
2023-03-04T22:16:02.081Z,38.70
2023-03-04T22:18:28.727Z,37.30
2023-03-04T22:21:16.630Z,43.33
2023-03-04T22:23:43.381Z,37.83
2023-03-04T22:26:15.844Z,40.33
2023-03-04T22:28:43.265Z,42.22
2023-03-04T22:31:30.646Z,42.75
2023-03-04T22:34:01.879Z,40.72
2023-03-04T22:36:29.415Z,34.53
2023-03-04T22:38:56.363Z,43.42
2023-03-04T22:41:22.916Z,40.72
2023-03-04T22:43:49.814Z,42.20
2023-03-04T22:46:27.944Z,46.78
2023-03-04T22:48:56.829Z,46.47
2023-03-04T22:51:23.312Z,35.63
2023-03-04T22:53:51.261Z,43.90
2023-03-04T22:56:21.059Z,42.80
2023-03-04T22:58:48.578Z,39.25
2023-03-04T23:01:17.974Z,37.95
2023-03-04T23:03:45.735Z,41.17
2023-03-04T23:06:13.892Z,42.85
2023-03-04T23:08:42.763Z,43.35
2023-03-04T23:11:15.666Z,35.58
2023-03-04T23:13:42.644Z,32.03
2023-03-04T23:16:11.267Z,44.17
2023-03-04T23:18:39.721Z,36.10
2023-03-04T23:21:21.384Z,41.50
2023-03-04T23:26:26.534Z,42.35
2023-03-04T23:28:55.574Z,46.08
2023-03-04T23:31:22.565Z,38.95
2023-03-04T23:33:49.295Z,41.35
2023-03-04T23:36:18.787Z,38.88
2023-03-04T23:38:48.466Z,40.63
2023-03-04T23:41:17.713Z,47.72
2023-03-04T23:43:44.348Z,40.72
2023-03-04T23:46:13.671Z,46.50
2023-03-04T23:48:43.115Z,48.10
2023-03-04T23:51:10.537Z,52.08
2023-03-04T23:53:38.980Z,53.22
2023-03-04T23:56:21.302Z,52.40
2023-03-04T23:58:48.277Z,51.75
